• Join FlightAware (Why Join?)
  • Login
  • US Flag 
02:12PM EDT


 

Airport Tracker/Info


-or-


 

Live Flight TrackerFlight Track Log ✈ EJA951 ✈ 19-May-2013 ✈ KBOS - KMHR

Flight Track Log - Related Links

Times and Time Zones

All times are in EDT time to prevent confusion due to time zone crossing. See the EJA951 flight status page for this flight to view local times or setup timezone preferences in your user account.

Time Position Orientation Groundspeed Altitude Reporting Facility
EDT Latitude Longitude Course Direction KTS MPH feet Rate Location/Type
04:52PM 42.3667 -70.9833 77° East 172 198 600  Level KA90
04:53PM 42.3833 -70.8833 77° East 230 265 4,000 3,000 Climbing KA90
04:54PM 42.4167 -70.7833 66° East 276 318 7,500 2,040 Climbing KA90
04:55PM 42.4833 -70.7667 10° North 277 319 8,100 1,140 Climbing KA90
04:57PM 42.5436 -70.8536 313° West 310 357 10,100 2,040 Climbing Boston Center
04:58PM 42.5969 -70.9453 308° West 296 341 12,600 2,160 Climbing Boston Center
04:59PM 42.6417 -71.0289 306° West 296 341 14,500 1,980 Climbing Boston Center
05:00PM 42.7014 -71.1378 307° West 316 364 16,600 1,800 Climbing Boston Center
05:01PM 42.7525 -71.2242 309° West 323 372 18,100 1,680 Climbing Boston Center
05:02PM 42.8178 -71.3108 316° Northwest 328 377 20,000 1,740 Climbing Boston Center
05:03PM 42.8708 -71.4144 305° West 317 365 21,600 1,500 Climbing Boston Center
05:04PM 42.8803 -71.5361 276° West 325 374 23,000 1,500 Climbing Boston Center
05:05PM 42.8919 -71.6833 276° West 348 400 24,600 1,560 Climbing Boston Center
05:06PM 42.9031 -71.8250 276° West 368 423 26,200 1,500 Climbing Boston Center
05:07PM 42.9100 -71.9725 274° West 379 436 27,600 1,440 Climbing Boston Center
05:08PM 42.9211 -72.1197 276° West 389 448 29,100 1,500 Climbing Boston Center
05:09PM 42.9317 -72.2700 276° West 394 453 30,600 1,440 Climbing Boston Center
05:10PM 42.9464 -72.4061 278° West 407 468 32,000 1,440 Climbing Boston Center
05:11PM 42.9525 -72.5619 273° West 407 468 33,500 1,620 Climbing Boston Center
05:12PM 42.9586 -72.7322 273° West 407 468 35,300 1,620 Climbing Boston Center
05:13PM 42.9683 -72.8911 275° West 407 468 36,800 1,380 Climbing Boston Center
05:14PM 42.9803 -73.0361 276° West 420 483 38,100 1,200 Climbing Boston Center
05:15PM 42.9897 -73.1950 275° West 427 491 39,300 900 Climbing Boston Center
05:16PM 42.9969 -73.3514 274° West 427 491 39,900 300 Climbing Boston Center
05:17PM 43.0039 -73.5133 273° West 420 483 40,000  Climbing Boston Center
05:18PM 43.0147 -73.6808 275° West 433 498 40,000  Level Boston Center
05:19PM 43.0272 -73.8517 276° West 447 514 40,000 60 Level Boston Center
05:20PM 43.0375 -74.0253 275° West 457 526 40,200 600 Climbing Boston Center
05:21PM 43.0517 -74.1931 277° West 457 526 41,200 900 Climbing Boston Center
05:22PM 43.0617 -74.3556 275° West 452 520 42,100 840 Climbing Boston Center
05:23PM 43.0714 -74.5150 275° West 438 504 42,900 420 Climbing Boston Center
05:24PM 43.0786 -74.6772 274° West 433 498 43,000  Climbing Boston Center
05:25PM 43.0900 -74.8397 276° West 433 498 43,000  Level Boston Center
05:26PM 43.0989 -75.0050 274° West 438 504 43,000  Level Boston Center
05:27PM 43.1056 -75.1731 273° West 443 510 43,000  Level Boston Center
05:28PM 43.1158 -75.3414 275° West 443 510 43,000  Level Boston Center
05:29PM 43.1261 -75.5097 275° West 443 510 43,000  Level Boston Center
05:30PM 43.1358 -75.6783 275° West 443 510 43,000  Level Boston Center
05:31PM 43.1436 -75.8494 274° West 443 510 43,000  Level Boston Center
05:32PM 43.1528 -76.0178 274° West 448 516 43,000  Level Boston Center
05:33PM 43.1333 -76.3000 265° West 450 518 43,000  Level Toronto Center
05:34PM 43.1394 -76.4714 273° West 442 509 43,000  Level Cleveland Center
05:35PM 43.1289 -76.6458 265° West 456 525 43,000  Level Cleveland Center
05:36PM 43.1389 -76.8158 275° West 461 531 43,000  Level Cleveland Center
05:37PM 43.1444 -76.9950 272° West 461 531 43,000  Level Cleveland Center
05:38PM 43.1539 -77.1681 274° West 461 531 43,000  Level Cleveland Center
05:39PM 43.1608 -77.3414 273° West 461 531 43,000  Level Cleveland Center
05:40PM 43.1678 -77.5175 273° West 461 531 43,000  Level Cleveland Center
05:41PM 43.1764 -77.6936 274° West 461 531 43,000  Level Cleveland Center
05:42PM 43.1808 -77.8700 272° West 461 531 43,000  Level Cleveland Center
05:43PM 43.1889 -78.0461 274° West 461 531 43,000  Level Cleveland Center
05:44PM 43.1947 -78.2225 273° West 461 531 43,000  Level Cleveland Center
05:45PM 43.2003 -78.3989 273° West 461 531 43,000  Level Cleveland Center
05:46PM 43.2081 -78.5981 273° West 466 536 43,000  Level Cleveland Center
05:47PM 43.2131 -78.7744 272° West 466 536 43,000  Level Cleveland Center
05:48PM 43.2156 -78.9511 271° West 466 536 43,000  Level Cleveland Center
05:49PM 43.2222 -79.1303 273° West 466 536 43,000  Level Cleveland Center
05:50PM 43.2167 -79.2833 267° West 470 541 43,000  Level Toronto Center
05:51PM 43.2167 -79.4667 270° West 470 541 43,000  Level Toronto Center
05:52PM 43.2167 -79.6500 270° West 470 541 43,000  Level Toronto Center
05:53PM 43.2333 -79.8333 277° West 470 541 43,000  Level Toronto Center
05:54PM 43.2333 -80.0167 270° West 470 541 43,000  Level Toronto Center
05:55PM 43.2333 -80.1833 270° West 470 541 43,000  Level Toronto Center
05:56PM 43.2333 -80.3833 270° West 470 541 43,000  Level Toronto Center
05:57PM 43.2500 -80.5500 278° West 480 552 43,000  Level Toronto Center
05:58PM 43.2500 -80.7333 270° West 470 541 43,000  Level Toronto Center
05:59PM 43.2333 -80.9167 263° West 480 552 43,000  Level Toronto Center
06:00PM 43.2333 -81.1000 270° West 480 552 43,000  Level Toronto Center
06:01PM 43.2333 -81.2833 270° West 480 552 43,000  Level Toronto Center
06:02PM 43.2500 -81.4667 277° West 480 552 43,000  Level Toronto Center
06:03PM 43.2500 -81.6500 270° West 490 564 43,000  Level Toronto Center
06:04PM 43.2500 -81.8500 270° West 490 564 43,000  Level Toronto Center
06:05PM 43.2333 -82.0167 262° West 490 564 43,000  Level Toronto Center
06:06PM 43.2500 -82.2167 277° West 490 564 43,000  Level Toronto Center
06:07PM 43.2500 -82.4000 270° West 490 564 43,000  Level Toronto Center
06:08PM 43.2500 -82.5833 270° West 490 564 43,000  Level Toronto Center
06:09PM 43.2594 -82.7183 276° West 498 573 43,000  Level Cleveland Center
06:10PM 43.3019 -82.8994 288° West 486 559 43,000  Level Cleveland Center
06:11PM 43.3253 -83.0803 280° West 486 559 43,000  Level Cleveland Center
06:12PM 43.3356 -83.2689 274° West 496 571 43,000  Level Cleveland Center
06:13PM 43.3458 -83.4522 274° West 496 571 43,000  Level Cleveland Center
06:14PM 43.3556 -83.6383 274° West 496 571 43,000  Level Cleveland Center
06:15PM 43.3653 -83.8186 274° West 486 559 43,000  Level Cleveland Center
06:16PM 43.3744 -84.0019 274° West 486 559 43,000  Level Cleveland Center
06:18PM 43.3897 -84.2914 274° West 482 555 43,000  Level Minneapolis Center
06:19PM 43.4008 -84.5128 274° West 484 557 43,000  Level Minneapolis Center
06:20PM 43.4097 -84.6994 274° West 491 565 43,000  Level Minneapolis Center
06:21PM 43.4197 -84.9250 274° West 493 567 43,000  Level Minneapolis Center
06:22PM 43.4283 -85.1144 274° West 497 572 43,000  Level Minneapolis Center
06:23PM 43.4367 -85.3003 274° West 493 567 43,000  Level Minneapolis Center
06:24PM 43.4450 -85.5225 273° West 490 564 43,000  Level Minneapolis Center
06:25PM 43.4542 -85.7428 273° West 487 560 43,000  Level Minneapolis Center
06:26PM 43.4597 -85.8875 273° West 483 556 43,000  Level Chicago Center
06:27PM 43.4675 -86.0664 273° West 478 550 43,000 240 Level Chicago Center
06:28PM 43.4747 -86.2808 273° West 473 544 43,500 900 Climbing Chicago Center
06:29PM 43.4786 -86.4517 272° West 453 521 44,900 660 Climbing Chicago Center
06:30PM 43.4833 -86.6203 272° West 445 512 45,000  Climbing Minneapolis Center
06:31PM 43.4883 -86.7858 272° West 442 509 45,000  Level Chicago Center
06:32PM 43.4939 -86.9558 273° West 444 511 45,000  Level Chicago Center
06:33PM 43.4981 -87.1281 272° West 451 519 45,000  Level Chicago Center
06:34PM 43.5033 -87.3342 272° West 452 520 45,000  Level Chicago Center
06:35PM 43.5056 -87.4922 271° West 446 513 45,000  Level Chicago Center
06:37PM 43.5089 -87.6625 272° West 443 510 45,000  Level Chicago Center
06:38PM 43.5131 -87.8886 272° West 444 511 45,000  Level Chicago Center
06:39PM 43.5156 -88.0292 271° West 443 510 45,000  Level Chicago Center
06:40PM 43.5189 -88.2244 271° West 440 506 45,000  Level Chicago Center
06:41PM 43.5244 -88.4172 272° West 448 516 45,000  Level Chicago Center
06:42PM 43.5286 -88.5875 272° West 449 517 45,000  Level Chicago Center
06:43PM 43.5256 -88.7500 269° West 433 498 45,000  Level Chicago Center
06:44PM 43.5272 -88.9172 271° West 437 503 45,000  Level Chicago Center
06:45PM 43.5286 -89.1147 271° West 441 507 45,000  Level Chicago Center
06:46PM 43.5294 -89.2825 270° West 440 506 45,000  Level Chicago Center
06:47PM 43.5308 -89.4536 271° West 445 512 45,000  Level Chicago Center
06:48PM 43.5289 -89.6267 269° West 452 520 45,000  Level Chicago Center
06:49PM 43.5294 -89.8011 270° West 456 525 45,000  Level Chicago Center
06:50PM 43.5303 -89.9764 270° West 457 526 45,000  Level Chicago Center
06:51PM 43.5292 -90.1814 270° West 459 528 45,000  Level Chicago Center
06:52PM 43.5289 -90.3369 270° West 461 531 45,000  Level Chicago Center
06:53PM 43.5289 -90.5122 270° West 462 532 45,000  Level Chicago Center
06:54PM 43.5275 -90.7253 270° West 469 540 45,000  Level Chicago Center
06:55PM 43.5261 -90.9006 269° West 465 535 45,000  Level Chicago Center
06:56PM 43.5261 -91.0772 270° West 468 539 45,000  Level Chicago Center
06:57PM 43.5242 -91.2542 269° West 470 541 45,000  Level Chicago Center
06:58PM 43.5222 -91.4317 269° West 470 541 45,000  Level Chicago Center
06:59PM 43.5200 -91.6453 269° West 472 543 45,000  Level Chicago Center
07:00PM 43.5161 -91.8214 268° West 469 540 45,000  Level Chicago Center
07:02PM 43.5139 -92.0008 269° West 468 539 45,000  Level Chicago Center
07:03PM 43.5464 -92.2081 282° West 481 554 45,100 240 Climbing Chicago Center
07:04PM 43.5878 -92.3781 289° West 475 547 45,600 420 Climbing Minneapolis Center
07:05PM 43.6328 -92.5467 290° West 475 547 46,100 480 Climbing Minneapolis Center
07:06PM 43.6856 -92.7467 290° West 469 540 46,700 420 Climbing Minneapolis Center
07:07PM 43.7156 -92.9175 284° West 465 535 47,000 120 Climbing Minneapolis Center
07:08PM 43.7383 -93.0842 281° West 456 525 47,000  Level Minneapolis Center
07:09PM 43.7444 -93.2575 273° West 441 507 47,000  Level Minneapolis Center
07:10PM 43.7364 -93.4303 266° West 449 517 47,000  Level Minneapolis Center
07:11PM 43.7303 -93.6036 267° West 452 520 47,000  Level Minneapolis Center
07:12PM 43.7222 -93.7778 266° West 453 521 47,000  Level Minneapolis Center
07:13PM 43.7142 -93.9861 267° West 454 522 47,000  Level Minneapolis Center
07:14PM 43.7058 -94.1625 266° West 459 528 47,000 -300 Level Minneapolis Center
07:15PM 43.6967 -94.3506 266° West 460 529 46,500 -540 Descending Minneapolis Center
07:16PM 43.6883 -94.5306 266° West 467 537 46,000 -540 Descending Minneapolis Center
07:17PM 43.6797 -94.7119 266° West 472 543 45,500 -540 Descending Minneapolis Center
07:18PM 43.6706 -94.8958 266° West 478 550 45,000 -180 Descending Minneapolis Center
07:20PM 43.6542 -95.1321 267° West  Level Estimated
07:20PM 43.6503 -95.2653 267° West 480 552 45,000  Level Minneapolis Center
07:21PM 43.6375 -95.4847 265° West 478 550 45,000  Level Minneapolis Center
07:22PM 43.6272 -95.6714 266° West 485 558 45,000  Level Minneapolis Center
07:23PM 43.6158 -95.8561 265° West 483 556 45,000  Level Minneapolis Center
07:24PM 43.6042 -96.0422 265° West 485 558 45,000  Level Minneapolis Center
07:25PM 43.5931 -96.2275 265° West 483 556 45,000  Level Minneapolis Center
07:26PM 43.5808 -96.4128 265° West 482 555 45,000  Level Minneapolis Center
07:27PM 43.5681 -96.5969 265° West 482 555 45,000  Level Minneapolis Center
07:28PM 43.5561 -96.7811 265° West 483 556 45,000  Level Minneapolis Center
07:29PM 43.5403 -96.9994 264° West 478 550 45,000  Level Minneapolis Center
07:30PM 43.5278 -97.1817 265° West 478 550 45,000  Level Minneapolis Center
07:31PM 43.5144 -97.3647 264° West 480 552 45,000  Level Minneapolis Center
07:33PM 43.5006 -97.5458 264° West 477 549 45,000  Level Minneapolis Center
07:34PM 43.4867 -97.7272 264° West 477 549 45,000  Level Minneapolis Center
07:35PM 43.4722 -97.9083 264° West 477 549 45,000  Level Minneapolis Center
07:36PM 43.4592 -98.0897 264° West 478 550 45,000  Level Minneapolis Center
07:37PM 43.4408 -98.3064 263° West 477 549 45,000  Level Minneapolis Center
07:38PM 43.4253 -98.4878 263° West 479 551 45,000  Level Minneapolis Center
07:39PM 43.4094 -98.6697 263° West 479 551 45,000  Level Minneapolis Center
07:40PM 43.3950 -98.8528 264° West 483 556 45,000  Level Minneapolis Center
07:41PM 43.3767 -99.0478 263° West 483 556 45,000  Level Minneapolis Center
07:42PM 43.3600 -99.2317 263° West 485 558 45,000  Level Minneapolis Center
07:43PM 43.3436 -99.4161 263° West 485 558 45,000  Level Minneapolis Center
07:44PM 43.3258 -99.6008 263° West 486 559 45,000  Level Minneapolis Center
07:45PM 43.3053 -99.8208 263° West 484 557 45,000  Level Minneapolis Center
07:46PM 43.2803 -100.0783 262° West 484 557 45,000  Level Minneapolis Center
07:47PM 43.2622 -100.2597 262° West 482 555 45,000  Level Minneapolis Center
07:48PM 43.2433 -100.4386 262° West 479 551 45,000  Level Minneapolis Center
07:49PM 43.2236 -100.6161 261° West 475 547 45,000  Level Minneapolis Center
07:50PM 43.2042 -100.7958 262° West 475 547 45,000  Level Minneapolis Center
07:52PM 43.1853 -100.9783 262° West 477 549 45,000  Level Minneapolis Center
07:53PM 43.1656 -101.1611 262° West 480 552 45,000  Level Minneapolis Center
07:54PM 43.1444 -101.3833 263° West 479 551 45,000  Level Denver Center
07:54PM 43.1444 -101.3833 263° West 484 557 45,000  Level Minneapolis Center
07:55PM 43.1239 -101.5644 261° West 481 554 45,000  Level Denver Center
07:56PM 43.0997 -101.7806 261° West 480 552 45,000  Level Denver Center
07:57PM 43.0858 -101.9103 262° West 482 555 45,000  Level Denver Center
07:58PM 43.0583 -102.1403 261° West 481 554 45,000  Level Denver Center
07:59PM 43.0386 -102.3128 261° West 481 554 45,000  Level Denver Center
08:00PM 43.0150 -102.5128 261° West 480 552 45,000  Level Denver Center
08:01PM 42.9933 -102.6844 260° West 479 551 45,000  Level Denver Center
08:02PM 42.9686 -102.8819 260° West 475 547 45,000  Level Denver Center
08:03PM 42.9447 -103.0803 261° West 475 547 45,000  Level Denver Center
08:04PM 42.9206 -103.2778 261° West 474 545 45,000  Level Denver Center
08:05PM 42.8975 -103.4478 260° West 476 548 45,000  Level Denver Center
08:06PM 42.8731 -103.6450 260° West 474 545 45,000  Level Denver Center
08:07PM 42.8508 -103.8128 260° West 473 544 45,000  Level Denver Center
08:08PM 42.8289 -103.9819 260° West 475 547 45,000  Level Denver Center
08:09PM 42.8019 -104.1789 260° West 475 547 45,000  Level Denver Center
08:10PM 42.7800 -104.3461 260° West 474 545 45,000  Level Denver Center
08:11PM 42.7542 -104.5408 260° West 475 547 45,000  Level Denver Center
08:12PM 42.7297 -104.7069 259° West 477 549 45,000  Level Denver Center
08:13PM 42.7019 -104.9011 259° West 476 548 45,000  Level Denver Center
08:14PM 42.6775 -105.0683 259° West 474 545 45,000  Level Denver Center
08:15PM 42.6489 -105.2639 259° West 475 547 45,000  Level Denver Center
08:16PM 42.6239 -105.4308 259° West 474 545 45,000  Level Denver Center
08:18PM 42.5964 -105.6244 259° West 469 540 45,000  Level Denver Center
08:19PM 42.5708 -105.7911 258° West 470 541 45,000  Level Denver Center
08:20PM 42.5456 -105.9572 258° West 469 540 45,000  Level Denver Center
08:21PM 42.5158 -106.1500 258° West 467 537 45,000  Level Denver Center
08:22PM 42.4903 -106.3150 258° West 467 537 45,000  Level Denver Center
08:23PM 42.4614 -106.5089 259° West 470 541 45,000  Level Denver Center
08:24PM 42.4350 -106.6719 258° West 467 537 45,000  Level Denver Center
08:25PM 42.4078 -106.8358 257° West 467 537 45,000  Level Denver Center
08:26PM 42.3797 -107.0156 258° West 469 540 45,000  Level Denver Center
08:27PM 42.3481 -107.2086 258° West 471 542 45,000  Level Denver Center
08:28PM 42.3206 -107.3731 257° West 471 542 45,000  Level Denver Center
08:29PM 42.2897 -107.5664 258° West 472 543 45,000  Level Denver Center
08:29PM 42.2739 -107.6486 255° West 473 544 45,000  Level Salt Lake Center
08:30PM 42.2472 -107.8150 258° West 476 548 45,000  Level Salt Lake Center
08:31PM 42.2136 -108.0069 257° West 473 544 45,000  Level Salt Lake Center
08:32PM 42.1850 -108.1728 257° West 477 549 45,000  Level Salt Lake Center
08:33PM 42.1522 -108.3653 257° West 474 545 45,000  Level Salt Lake Center
08:34PM 42.1247 -108.5317 257° West 476 548 45,000  Level Salt Lake Center
08:35PM 42.0944 -108.6950 256° West 473 544 45,000  Level Salt Lake Center
08:36PM 42.0611 -108.8872 257° West 474 545 45,000  Level Salt Lake Center
08:38PM 42.0300 -109.0503 256° West 473 544 45,000  Level Salt Lake Center
08:39PM 41.9956 -109.2400 256° West 473 544 45,000  Level Salt Lake Center
08:40PM 41.9656 -109.4028 256° West 472 543 45,000  Level Salt Lake Center
08:41PM 41.9300 -109.5889 256° West 466 536 45,000  Level Salt Lake Center
08:42PM 41.9003 -109.7506 256° West 468 539 45,000  Level Salt Lake Center
08:43PM 41.8647 -109.9364 256° West 464 534 45,000  Level Salt Lake Center
08:44PM 41.8342 -110.0950 256° West 463 533 45,000  Level Salt Lake Center
08:45PM 41.7989 -110.2789 256° West 459 528 45,000  Level Salt Lake Center
08:46PM 41.7683 -110.4369 256° West 459 528 45,000  Level Salt Lake Center
08:47PM 41.7375 -110.5936 255° West 456 525 45,000  Level Salt Lake Center
08:48PM 41.7014 -110.7767 255° West 457 526 45,000  Level Salt Lake Center
08:49PM 41.6700 -110.9331 255° West 457 526 45,000  Level Salt Lake Center
08:50PM 41.6347 -111.1022 254° West 457 526 45,000  Level Salt Lake Center
08:51PM 41.6019 -111.2642 255° West 456 525 45,000  Level Salt Lake Center
08:52PM 41.5686 -111.4256 255° West 454 522 45,000  Level Salt Lake Center
08:53PM 41.5356 -111.5869 255° West 454 522 45,000  Level Salt Lake Center
08:54PM 41.4961 -111.7794 255° West 452 520 45,000  Level Salt Lake Center
08:55PM 41.4622 -111.9397 254° West 453 521 45,000  Level Salt Lake Center
08:56PM 41.4286 -112.1000 254° West 456 525 45,000  Level Salt Lake Center
08:57PM 41.3947 -112.2608 254° West 456 525 45,000  Level Salt Lake Center
08:58PM 41.3600 -112.4217 254° West 457 526 45,000  Level Salt Lake Center
08:59PM 41.3256 -112.5831 254° West 457 526 45,000  Level Salt Lake Center
09:00PM 41.2828 -112.7783 254° West 460 529 45,000  Level Salt Lake Center
09:01PM 41.2472 -112.9414 254° West 462 532 45,000  Level Salt Lake Center
09:02PM 41.2100 -113.1050 253° West 465 535 45,000  Level Salt Lake Center
09:03PM 41.1725 -113.2692 253° West 465 535 45,000  Level Salt Lake Center
09:04PM 41.1347 -113.4328 253° West 466 536 45,000  Level Salt Lake Center
09:05PM 41.0986 -113.5969 254° West 466 536 45,000  Level Salt Lake Center
09:06PM 41.0611 -113.7619 253° West 468 539 45,000  Level Salt Lake Center
09:07PM 41.0236 -113.9272 253° West 470 541 45,000  Level Salt Lake Center
09:08PM 40.9756 -114.1261 252° West 473 544 45,000  Level Salt Lake Center
09:09PM 40.9381 -114.2911 253° West 471 542 45,000  Level Salt Lake Center
09:10PM 40.9000 -114.4561 253° West 470 541 45,000  Level Salt Lake Center
09:11PM 40.8633 -114.6106 253° West 474 545 45,000  Level Salt Lake Center
09:12PM 40.8178 -114.7931 252° West 468 539 45,000  Level Salt Lake Center
09:14PM 40.7517 -115.0808 253° West 467 537 45,000  Level Oakland Center
09:15PM 40.7131 -115.2375 252° West 468 539 45,000  Level Oakland Center
09:15PM 40.6989 -115.2869 249° West 464 534 45,000  Level Salt Lake Center
09:16PM 40.6597 -115.4442 252° West 469 540 45,000  Level Salt Lake Center
09:17PM 40.6153 -115.6275 252° West 470 541 45,000  Level Salt Lake Center
09:18PM 40.5761 -115.7850 252° West 472 543 45,000  Level Salt Lake Center
09:20PM 40.5306 -115.9681 252° West 473 544 45,000  Level Salt Lake Center
09:21PM 40.4906 -116.1258 252° West 473 544 45,000  Level Salt Lake Center
09:22PM 40.4508 -116.2861 252° West 479 551 45,000  Level Salt Lake Center
09:23PM 40.4025 -116.4728 251° West 481 554 45,000  Level Salt Lake Center
09:24PM 40.3617 -116.6336 252° West 482 555 45,000  Level Salt Lake Center
09:25PM 40.3169 -116.7958 250° West 482 555 45,000  Level Salt Lake Center
09:26PM 40.2681 -116.9911 252° West 492 566 45,000  Level Salt Lake Center
09:27PM 40.2256 -117.1533 251° West 489 563 45,000  Level Salt Lake Center
09:28PM 40.1831 -117.3147 251° West 488 562 45,000  Level Salt Lake Center
09:29PM 40.1283 -117.5014 249° West 491 565 45,000  Level Salt Lake Center
09:29PM 40.0789 -117.6250 242° Southwest 493 567 45,000  Level Oakland Center
09:30PM 40.0169 -117.7847 243° Southwest 491 565 45,000  Level Oakland Center
09:32PM 39.9544 -117.9469 243° Southwest 500 575 45,000  Level Oakland Center
09:33PM 39.8906 -118.1067 243° Southwest 498 573 45,000 -300 Level Oakland Center
09:34PM 39.8267 -118.2656 242° Southwest 497 572 44,500 -780 Descending Oakland Center
09:35PM 39.7639 -118.4239 243° Southwest 491 565 43,500 -1,020 Descending Oakland Center
09:36PM 39.7036 -118.5733 242° Southwest 473 544 42,500 -1,080 Descending Oakland Center
09:37PM 39.6433 -118.7211 242° Southwest 469 540 41,400 -1,500 Descending Oakland Center
09:38PM 39.5711 -118.8997 242° Southwest 475 547 39,500 -1,920 Descending Oakland Center
09:39PM 39.5072 -119.0547 242° Southwest 495 570 37,500 -1,980 Descending Oakland Center
09:40PM 39.4456 -119.2014 241° Southwest 471 542 35,500 -1,980 Descending Oakland Center
09:41PM 39.3833 -119.3503 242° Southwest 473 544 33,500 -1,980 Descending Oakland Center
09:42PM 39.3206 -119.5017 242° Southwest 480 552 31,500 -2,040 Descending Oakland Center
09:43PM 39.2569 -119.6558 242° Southwest 494 568 29,400 -1,980 Descending Oakland Center
09:44PM 39.1917 -119.8108 242° Southwest 493 567 27,500 -2,160 Descending Oakland Center
09:45PM 39.1156 -119.9947 242° Southwest 488 562 25,100 -2,220 Descending Oakland Center
09:46PM 39.0497 -120.1447 241° Southwest 477 549 23,000 -2,040 Descending Oakland Center
09:47PM 38.9894 -120.2875 242° Southwest 459 528 21,000 -1,980 Descending Oakland Center
09:48PM 38.9292 -120.4275 241° Southwest 451 519 19,000 -1,980 Descending Oakland Center
09:49PM 38.8717 -120.5644 242° Southwest 439 505 17,000 -2,160 Descending Oakland Center
09:50PM 38.8133 -120.6972 241° Southwest 431 496 14,700 -2,460 Descending Oakland Center
09:51PM 38.7617 -120.8217 242° Southwest 402 463 12,000 -1,380 Descending Oakland Center
09:52PM 38.7086 -120.9433 241° Southwest 393 452 12,000 -480 Level Oakland Center
09:53PM 38.6403 -121.0261 223° Southwest 333 383 11,100 -1,560 Descending Oakland Center
09:54PM 38.5778 -121.1011 223° Southwest 312 359 8,900 -2,580 Descending Oakland Center
09:55PM 38.5267 -121.1811 231° Southwest 288 331 5,900 -2,520 Descending Oakland Center
09:56PM 38.4811 -121.2553 232° Southwest 261 300 3,800 -1,680 Descending Oakland Center
09:57PM 38.4694 -121.3206 257° West 200 230 2,600 -1,380 Descending Oakland Center
09:58PM 38.5103 -121.3472 333° Northwest 152 175 1,100 -1,140 Descending Oakland Center
09:59PM 38.5397 -121.3256 30° Northeast 129 148 300 14,040 Descending Oakland Center
10:00PM 38.5594 -121.2911 54° Northeast 129 148 30,000 29,160 Climbing Oakland Center